createdAt,value
2018-06-03T00:00:56.134Z,49.52
2018-06-03T00:03:22.353Z,49.35
2018-06-03T00:05:48.592Z,50.10
2018-06-03T00:08:14.815Z,50.83
2018-06-03T00:10:41.119Z,51.61
2018-06-03T00:13:07.324Z,51.46
2018-06-03T00:15:33.533Z,50.57
2018-06-03T00:17:59.733Z,50.75
2018-06-03T00:34:34.286Z,53.27
2018-06-03T00:37:02.570Z,53.14
2018-06-03T00:39:30.734Z,52.84
2018-06-03T00:41:59.213Z,52.26
2018-06-03T00:44:28.334Z,52.28
2018-06-03T00:46:56.693Z,52.95
2018-06-03T00:49:24.968Z,53.35
2018-06-03T00:51:53.249Z,53.65
2018-06-03T00:54:21.536Z,53.70
2018-06-03T00:57:00.870Z,53.30
2018-06-03T00:59:28.924Z,53.93
2018-06-03T01:01:57.205Z,56.94
2018-06-03T01:04:25.386Z,58.93
2018-06-03T01:06:53.672Z,60.73
2018-06-03T01:09:22.417Z,60.18
2018-06-03T01:11:50.612Z,60.50
2018-06-03T01:14:18.901Z,61.35
2018-06-03T01:16:47.069Z,61.22
2018-06-03T01:19:16.277Z,60.63
2018-06-03T01:21:44.449Z,61.00
2018-06-03T01:24:12.626Z,60.62
2018-06-03T01:26:40.901Z,60.46
2018-06-03T01:29:09.187Z,61.48
2018-06-03T01:31:37.450Z,61.93
2018-06-03T01:34:05.821Z,62.16
2018-06-03T01:36:34.025Z,61.88
2018-06-03T01:39:02.293Z,61.40
2018-06-03T01:41:30.659Z,61.96
2018-06-03T01:43:58.828Z,61.77
2018-06-03T01:46:27.013Z,61.52
2018-06-03T01:48:55.186Z,61.71
2018-06-03T01:51:23.370Z,60.30
2018-06-03T01:53:51.736Z,61.17
2018-06-03T01:56:19.874Z,60.74
2018-06-03T01:58:48.094Z,60.70
2018-06-03T02:01:16.252Z,61.22
2018-06-03T02:03:44.438Z,61.46
2018-06-03T02:06:12.925Z,62.01
2018-06-03T02:08:41.293Z,61.71
2018-06-03T02:11:09.481Z,61.89
2018-06-03T02:13:37.650Z,62.75
2018-06-03T02:16:06.026Z,62.58
2018-06-03T02:18:34.401Z,62.84
2018-06-03T02:21:02.677Z,63.90
2018-06-03T02:23:30.954Z,62.56
2018-06-03T02:25:59.224Z,62.59
2018-06-03T02:28:27.397Z,63.10
2018-06-03T02:30:55.585Z,61.68
2018-06-03T02:33:23.853Z,62.44
2018-06-03T02:35:52.144Z,62.62
2018-06-03T02:38:21.325Z,63.15
2018-06-03T02:40:49.609Z,63.52
2018-06-03T02:43:17.887Z,63.17
2018-06-03T02:45:46.364Z,64.18
2018-06-03T02:48:14.750Z,64.35
2018-06-03T02:50:43.024Z,65.56
2018-06-03T02:53:11.197Z,65.66
2018-06-03T02:55:39.485Z,65.57
2018-06-03T02:58:07.666Z,64.65
2018-06-03T03:00:36.038Z,64.45
2018-06-03T03:03:04.514Z,64.61
2018-06-03T03:05:32.799Z,64.54
2018-06-03T03:08:01.176Z,63.97
2018-06-03T03:10:29.462Z,64.87
2018-06-03T03:12:57.817Z,63.96
2018-06-03T03:15:26.102Z,64.62
2018-06-03T03:17:54.494Z,64.57
2018-06-03T03:20:23.328Z,64.63
2018-06-03T03:22:51.540Z,64.47
2018-06-03T03:25:19.817Z,63.81
2018-06-03T03:27:48.195Z,63.88
2018-06-03T03:30:16.581Z,63.79
2018-06-03T03:32:44.854Z,64.31
2018-06-03T03:35:13.247Z,64.64
2018-06-03T03:37:41.420Z,65.73
2018-06-03T03:40:09.785Z,65.46
2018-06-03T03:42:37.960Z,65.54
2018-06-03T03:45:06.357Z,66.49
2018-06-03T03:47:34.521Z,65.95
2018-06-03T03:50:02.697Z,65.65
2018-06-03T03:52:31.078Z,64.90
2018-06-03T03:54:59.251Z,64.66
2018-06-03T03:57:27.418Z,64.42
2018-06-03T03:59:55.715Z,63.69
2018-06-03T04:02:23.964Z,64.03
2018-06-03T04:04:52.254Z,64.63
2018-06-03T04:07:20.421Z,65.84
2018-06-03T04:09:48.595Z,65.34
2018-06-03T04:12:17.285Z,64.63
2018-06-03T04:14:45.496Z,63.76
2018-06-03T04:17:13.747Z,64.18
2018-06-03T04:19:42.018Z,63.97
2018-06-03T04:22:10.187Z,63.61
2018-06-03T04:24:38.358Z,63.12
2018-06-03T04:27:06.534Z,63.05
2018-06-03T04:29:34.916Z,64.08
2018-06-03T04:32:03.188Z,63.97
2018-06-03T04:34:31.464Z,63.55
2018-06-03T04:36:59.641Z,63.75
2018-06-03T04:39:27.920Z,62.80
2018-06-03T04:41:56.205Z,62.64
2018-06-03T04:44:24.468Z,61.74
2018-06-03T04:46:52.642Z,60.79
2018-06-03T04:49:20.838Z,59.51
2018-06-03T04:51:49.297Z,59.55
2018-06-03T04:54:17.486Z,60.14
2018-06-03T04:56:46.184Z,60.43
2018-06-03T04:59:14.583Z,59.53
2018-06-03T05:01:42.830Z,59.29
2018-06-03T05:04:11.201Z,58.82
2018-06-03T05:06:39.385Z,58.51
2018-06-03T05:09:07.953Z,58.31
2018-06-03T05:11:36.238Z,59.75
2018-06-03T05:14:04.501Z,60.90
2018-06-03T05:16:32.685Z,61.49
2018-06-03T05:19:00.905Z,61.71
2018-06-03T05:21:29.146Z,60.67
2018-06-03T05:23:57.409Z,59.63
2018-06-03T05:26:25.594Z,58.81
2018-06-03T05:28:53.873Z,58.19
2018-06-03T05:31:22.237Z,58.43
2018-06-03T05:33:50.522Z,60.51
2018-06-03T05:36:18.802Z,60.90
2018-06-03T05:38:46.700Z,61.45
2018-06-03T05:41:14.594Z,60.61
2018-06-03T05:43:42.501Z,59.44
2018-06-03T05:46:10.478Z,59.74
2018-06-03T05:48:38.746Z,60.63
2018-06-03T05:51:07.021Z,61.08
2018-06-03T05:53:35.211Z,59.57
2018-06-03T05:56:03.677Z,58.78
2018-06-03T05:58:31.762Z,57.22
2018-06-03T06:00:59.921Z,56.05
2018-06-03T06:03:28.196Z,56.69
2018-06-03T06:05:56.382Z,58.17
2018-06-03T06:08:24.647Z,57.52
2018-06-03T06:10:52.942Z,58.35
2018-06-03T06:13:21.314Z,58.48
2018-06-03T06:15:49.492Z,57.12
2018-06-03T06:18:17.655Z,55.71
2018-06-03T06:20:46.498Z,55.61
2018-06-03T06:23:14.817Z,55.78
2018-06-03T06:25:43.096Z,55.44
2018-06-03T06:28:11.386Z,57.24
2018-06-03T06:30:39.662Z,56.96
2018-06-03T06:33:07.829Z,55.72
2018-06-03T06:35:36.197Z,55.25
2018-06-03T06:38:04.591Z,56.70
2018-06-03T06:40:32.970Z,56.43
2018-06-03T06:43:02.027Z,55.86
2018-06-03T06:45:30.244Z,56.39
2018-06-03T06:47:58.418Z,55.51
2018-06-03T06:50:26.958Z,55.72
2018-06-03T06:52:55.382Z,55.18
2018-06-03T06:55:23.763Z,54.80
2018-06-03T06:57:52.128Z,54.69
2018-06-03T07:00:20.424Z,53.38
2018-06-03T07:02:49.661Z,53.22
2018-06-03T07:05:18.408Z,53.51
2018-06-03T07:07:46.780Z,54.01
2018-06-03T07:10:15.053Z,53.29
2018-06-03T07:12:43.346Z,53.08
2018-06-03T07:15:11.622Z,53.46
2018-06-03T07:17:39.798Z,53.17
2018-06-03T07:20:07.970Z,52.17
2018-06-03T07:22:36.442Z,52.56
2018-06-03T07:25:04.826Z,52.52
2018-06-03T07:27:33.215Z,52.48
2018-06-03T07:30:01.486Z,51.53
2018-06-03T07:32:29.762Z,52.10
2018-06-03T07:34:58.038Z,51.79
2018-06-03T07:37:26.269Z,51.89
2018-06-03T07:39:54.694Z,50.68
2018-06-03T07:42:23.649Z,50.19
2018-06-03T07:44:52.077Z,50.93
2018-06-03T07:47:20.346Z,51.38
2018-06-03T07:49:48.530Z,51.60
2018-06-03T07:52:16.702Z,51.11
2018-06-03T07:54:45.181Z,51.24
2018-06-03T07:57:13.333Z,50.51
2018-06-03T07:59:41.756Z,49.91
2018-06-03T08:02:09.988Z,50.78
2018-06-03T08:04:38.446Z,49.80
2018-06-03T08:07:06.874Z,49.06
2018-06-03T08:09:35.150Z,49.17
2018-06-03T08:12:03.517Z,48.54
2018-06-03T08:14:31.801Z,48.72
2018-06-03T08:17:00.338Z,48.77
2018-06-03T08:19:28.559Z,48.54
2018-06-03T08:21:57.043Z,48.94
2018-06-03T08:24:25.637Z,48.53
2018-06-03T08:26:54.155Z,48.92
2018-06-03T08:32:52.533Z,48.53
2018-06-03T08:35:21.001Z,48.35
2018-06-03T08:37:49.401Z,47.78
2018-06-03T08:40:18.846Z,47.79
2018-06-03T08:42:47.182Z,47.60
2018-06-03T08:45:15.550Z,46.96
2018-06-03T08:47:43.882Z,47.10
2018-06-03T08:50:12.206Z,48.13
2018-06-03T08:52:40.611Z,48.26
2018-06-03T08:55:08.965Z,48.23
2018-06-03T08:57:37.137Z,47.03
2018-06-03T09:00:05.498Z,47.01
2018-06-03T09:02:33.887Z,47.19
2018-06-03T09:05:02.275Z,47.28
2018-06-03T09:07:30.454Z,47.22
2018-06-03T09:09:58.818Z,46.82
2018-06-03T09:12:27.001Z,45.55
2018-06-03T09:14:55.170Z,46.96
2018-06-03T09:17:23.557Z,45.72
2018-06-03T09:19:51.935Z,45.36
2018-06-03T09:22:20.216Z,45.67
2018-06-03T09:24:48.482Z,46.71
2018-06-03T09:27:16.813Z,46.35
2018-06-03T09:29:45.338Z,46.51
2018-06-03T09:32:13.609Z,45.51
2018-06-03T09:34:41.882Z,45.40
2018-06-03T09:37:10.296Z,45.54
2018-06-03T09:43:50.690Z,45.30
2018-06-03T09:46:19.936Z,44.80
2018-06-03T09:48:48.399Z,45.30
2018-06-03T09:51:16.775Z,45.49
2018-06-03T09:53:45.055Z,44.60
2018-06-03T09:56:13.331Z,44.22
2018-06-03T09:58:41.788Z,45.24
2018-06-03T10:01:10.073Z,45.54
2018-06-03T10:03:38.254Z,45.08
2018-06-03T10:06:06.837Z,44.57
2018-06-03T10:08:35.053Z,44.76
2018-06-03T10:11:03.322Z,43.90
2018-06-03T10:13:31.616Z,44.26
2018-06-03T10:15:59.989Z,44.33
2018-06-03T10:18:28.260Z,43.97
2018-06-03T10:20:56.534Z,43.55
2018-06-03T10:23:24.826Z,42.76
2018-06-03T10:25:52.986Z,42.47
2018-06-03T10:28:21.174Z,42.68
2018-06-03T10:30:49.433Z,43.28
2018-06-03T10:33:17.731Z,41.44
2018-06-03T10:35:46.006Z,41.18
2018-06-03T10:38:14.278Z,41.71
2018-06-03T10:40:42.558Z,41.40
2018-06-03T10:43:10.825Z,42.27
2018-06-03T10:45:39.012Z,40.75
2018-06-03T10:48:07.378Z,40.88
2018-06-03T10:50:35.726Z,41.36
2018-06-03T10:53:03.933Z,40.77
2018-06-03T10:55:32.099Z,41.66
2018-06-03T10:58:01.315Z,40.96
2018-06-03T11:00:29.486Z,42.79
2018-06-03T11:02:57.989Z,42.54
2018-06-03T11:05:26.653Z,42.60
2018-06-03T11:07:55.153Z,42.25
2018-06-03T11:10:23.414Z,42.46
2018-06-03T11:12:52.027Z,40.85
2018-06-03T11:15:20.378Z,39.46
2018-06-03T11:17:48.645Z,40.60
2018-06-03T11:20:17.778Z,40.11
2018-06-03T11:22:55.628Z,39.38
2018-06-03T11:25:31.197Z,39.42
2018-06-03T11:27:59.478Z,39.57
2018-06-03T11:30:27.961Z,38.76
2018-06-03T11:32:56.568Z,38.57
2018-06-03T11:35:25.017Z,38.44
2018-06-03T11:37:53.717Z,37.73
2018-06-03T11:40:22.897Z,38.28
2018-06-03T11:42:51.192Z,36.30
2018-06-03T11:45:19.559Z,35.92
2018-06-03T11:47:48.698Z,37.72
2018-06-03T11:50:17.026Z,37.31
2018-06-03T11:52:45.213Z,36.80
2018-06-03T11:55:13.474Z,37.14
2018-06-03T11:58:55.408Z,35.32
2018-06-03T12:01:24.435Z,39.12
2018-06-03T12:03:52.865Z,39.60
2018-06-03T12:06:21.342Z,36.59
2018-06-03T12:08:50.556Z,37.00
2018-06-03T12:11:19.057Z,37.33
2018-06-03T12:13:47.397Z,36.09
2018-06-03T12:16:15.621Z,35.17
2018-06-03T12:18:44.062Z,35.18
2018-06-03T12:21:12.241Z,35.29
2018-06-03T12:23:40.520Z,35.94
2018-06-03T12:26:08.694Z,36.12
2018-06-03T12:28:37.034Z,36.30
2018-06-03T12:31:05.230Z,36.38
2018-06-03T12:33:33.519Z,36.72
2018-06-03T12:36:01.813Z,37.01
2018-06-03T12:38:39.747Z,37.85
2018-06-03T12:41:09.205Z,39.06
2018-06-03T12:43:37.491Z,39.55
2018-06-03T12:46:05.864Z,40.56
2018-06-03T12:48:34.247Z,41.41
2018-06-03T12:51:02.519Z,41.83
2018-06-03T12:53:30.801Z,42.16
2018-06-03T12:55:58.970Z,42.21
2018-06-03T12:58:27.145Z,43.03
2018-06-03T13:00:55.410Z,42.65
2018-06-03T13:03:30.047Z,42.63
2018-06-03T13:05:59.335Z,42.40
2018-06-03T13:08:28.538Z,41.63
2018-06-03T13:10:56.821Z,43.63
2018-06-03T13:13:25.099Z,42.23
2018-06-03T13:15:53.298Z,42.94
2018-06-03T13:18:21.553Z,43.45
2018-06-03T13:20:49.818Z,42.71
2018-06-03T13:23:18.010Z,42.93
2018-06-03T13:25:46.170Z,42.35
2018-06-03T13:28:14.563Z,42.26
2018-06-03T13:30:42.713Z,42.38
2018-06-03T13:33:11.009Z,42.08
2018-06-03T13:35:39.273Z,41.15
2018-06-03T13:38:07.857Z,42.48
2018-06-03T13:40:36.025Z,41.91
2018-06-03T13:43:04.454Z,41.73
2018-06-03T13:45:32.670Z,41.81
2018-06-03T13:48:01.017Z,42.17
2018-06-03T13:50:29.349Z,42.72
2018-06-03T13:52:57.513Z,41.94
2018-06-03T13:55:25.686Z,40.74
2018-06-03T13:57:54.007Z,40.72
2018-06-03T14:00:22.158Z,42.17
2018-06-03T14:02:50.333Z,43.30
2018-06-03T14:05:18.498Z,38.91
2018-06-03T14:07:47.700Z,39.04
2018-06-03T14:10:15.874Z,42.90
2018-06-03T14:12:44.136Z,42.31
2018-06-03T14:15:12.429Z,38.78
2018-06-03T14:17:40.698Z,37.08
2018-06-03T14:20:08.983Z,36.27
2018-06-03T14:22:37.245Z,39.44
2018-06-03T14:25:05.534Z,35.52
2018-06-03T14:27:33.798Z,37.73
2018-06-03T14:30:02.073Z,36.88
2018-06-03T14:32:30.364Z,36.79
2018-06-03T14:34:58.641Z,37.93
2018-06-03T14:37:26.968Z,37.15
2018-06-03T14:39:55.187Z,36.67
2018-06-03T14:42:23.477Z,36.87
2018-06-03T14:44:51.740Z,37.19
2018-06-03T14:47:20.023Z,36.16
2018-06-03T14:49:48.321Z,38.22
2018-06-03T14:52:16.569Z,39.24
2018-06-03T14:54:44.733Z,38.11
2018-06-03T14:57:12.917Z,37.24
2018-06-03T14:59:41.045Z,36.51
2018-06-03T15:02:09.226Z,36.52
2018-06-03T15:04:37.386Z,40.31
2018-06-03T15:07:05.817Z,36.31
2018-06-03T15:09:34.335Z,36.12
2018-06-03T15:12:02.638Z,36.63
2018-06-03T15:14:31.025Z,39.08
2018-06-03T15:16:59.670Z,36.47
2018-06-03T15:19:27.991Z,36.89
2018-06-03T15:21:56.279Z,36.26
2018-06-03T15:24:24.649Z,37.21
2018-06-03T15:26:54.064Z,37.78
2018-06-03T15:29:22.251Z,36.48
2018-06-03T15:31:50.434Z,36.33
2018-06-03T15:34:18.814Z,36.70
2018-06-03T15:36:46.994Z,37.39
2018-06-03T15:39:15.373Z,38.39
2018-06-03T15:41:43.754Z,37.84
2018-06-03T15:44:12.113Z,37.29
2018-06-03T15:46:41.714Z,37.88
2018-06-03T15:49:10.533Z,37.12
2018-06-03T15:51:42.643Z,37.29
2018-06-03T15:54:11.383Z,37.90
2018-06-03T15:56:39.688Z,38.23
2018-06-03T15:59:07.839Z,39.42
2018-06-03T16:01:36.130Z,38.97
2018-06-03T16:04:04.297Z,39.04
2018-06-03T16:06:32.518Z,38.58
2018-06-03T16:09:02.242Z,38.28
2018-06-03T16:11:31.105Z,38.62
2018-06-03T16:14:00.521Z,39.10
2018-06-03T16:16:28.874Z,38.42
2018-06-03T16:18:57.184Z,38.85
2018-06-03T16:21:25.671Z,39.07
2018-06-03T16:23:54.217Z,38.78
2018-06-03T16:26:23.094Z,38.09
2018-06-03T16:28:51.314Z,38.71
2018-06-03T16:31:19.619Z,38.25
2018-06-03T16:33:48.062Z,38.59
2018-06-03T16:36:16.878Z,39.04
2018-06-03T16:38:45.237Z,39.25
2018-06-03T16:41:13.377Z,39.46
2018-06-03T16:43:41.773Z,38.93
2018-06-03T16:46:09.933Z,39.49
2018-06-03T16:48:38.385Z,39.69
2018-06-03T16:51:06.500Z,39.58
2018-06-03T16:53:34.670Z,40.14
2018-06-03T16:56:02.980Z,41.34
2018-06-03T16:58:31.249Z,41.70
2018-06-03T17:00:59.562Z,41.73
2018-06-03T17:03:27.874Z,41.62
2018-06-03T17:05:56.068Z,41.65
2018-06-03T17:08:26.049Z,40.68
2018-06-03T17:10:54.341Z,41.73
2018-06-03T17:13:22.687Z,41.20
2018-06-03T17:15:50.805Z,41.08
2018-06-03T17:18:20.347Z,41.00
2018-06-03T17:20:49.283Z,41.35
2018-06-03T17:23:18.313Z,41.62
2018-06-03T17:25:46.827Z,42.12
2018-06-03T17:28:23.191Z,43.04
2018-06-03T17:30:57.790Z,42.83
2018-06-03T17:33:26.057Z,43.04
2018-06-03T17:35:54.544Z,42.63
2018-06-03T17:38:22.813Z,42.80
2018-06-03T17:40:51.085Z,42.73
2018-06-03T17:43:53.165Z,42.60
2018-06-03T17:47:07.166Z,43.16
2018-06-03T17:49:41.934Z,43.09
2018-06-03T17:52:10.178Z,43.42
2018-06-03T17:54:38.466Z,43.47
2018-06-03T17:57:06.730Z,43.56
2018-06-03T17:59:34.807Z,43.34
2018-06-03T18:02:03.078Z,43.25
2018-06-03T18:04:31.267Z,43.27
2018-06-03T18:06:59.305Z,43.07
2018-06-03T18:09:27.719Z,43.00
2018-06-03T18:14:56.901Z,42.90
2018-06-03T18:17:25.690Z,44.07
2018-06-03T18:19:54.021Z,44.38
2018-06-03T18:22:24.266Z,45.35
2018-06-03T18:24:52.583Z,45.75
2018-06-03T18:27:20.902Z,46.45
2018-06-03T18:29:48.921Z,47.00
2018-06-03T18:32:17.149Z,47.31
2018-06-03T18:34:45.317Z,48.07
2018-06-03T18:37:33.314Z,48.23
2018-06-03T18:40:30.513Z,48.73
2018-06-03T18:43:42.101Z,48.31
2018-06-03T18:46:21.862Z,48.69
2018-06-03T18:48:56.593Z,49.89
2018-06-03T18:51:47.902Z,50.85
2018-06-03T18:54:34.738Z,50.95
2018-06-03T18:57:06.762Z,50.79
2018-06-03T18:59:35.408Z,51.66
2018-06-03T19:02:04.027Z,52.30
2018-06-03T19:04:32.353Z,52.56
2018-06-03T19:07:00.952Z,52.15
2018-06-03T19:09:29.773Z,52.42
2018-06-03T19:11:58.022Z,52.73
2018-06-03T19:14:26.430Z,52.42
2018-06-03T19:16:54.574Z,52.50
2018-06-03T19:19:22.858Z,52.84
2018-06-03T19:21:51.009Z,53.11
2018-06-03T19:24:19.192Z,53.24
2018-06-03T19:26:47.510Z,54.28
2018-06-03T19:29:15.545Z,54.50
2018-06-03T19:31:43.514Z,54.86
2018-06-03T19:34:14.608Z,54.77
2018-06-03T19:36:42.826Z,54.37
2018-06-03T19:39:12.661Z,54.17
2018-06-03T19:41:41.178Z,54.61
2018-06-03T19:44:09.503Z,53.68
2018-06-03T19:46:37.779Z,54.59
2018-06-03T19:49:07.632Z,55.37
2018-06-03T19:52:15.566Z,55.13
2018-06-03T19:54:55.764Z,55.45
2018-06-03T19:57:45.658Z,55.40
2018-06-03T20:00:13.953Z,55.42
2018-06-03T20:03:14.976Z,54.53
2018-06-03T20:05:44.298Z,54.85
2018-06-03T20:08:12.630Z,55.13
2018-06-03T20:10:41.018Z,55.00
2018-06-03T20:13:09.546Z,55.19
2018-06-03T20:15:37.783Z,55.08
2018-06-03T20:18:06.372Z,55.09
2018-06-03T20:20:34.541Z,54.87
2018-06-03T20:23:03.079Z,54.72
2018-06-03T20:25:31.288Z,55.21
2018-06-03T20:28:06.877Z,56.31
2018-06-03T20:30:35.539Z,56.52
2018-06-03T20:33:04.003Z,55.67
2018-06-03T20:35:32.319Z,55.82
2018-06-03T20:38:00.571Z,55.87
2018-06-03T20:40:28.797Z,55.74
2018-06-03T20:42:57.071Z,56.29
2018-06-03T20:45:25.625Z,55.56
2018-06-03T20:47:53.780Z,55.28
2018-06-03T20:50:22.904Z,55.55
2018-06-03T20:52:51.254Z,55.77
2018-06-03T20:55:19.573Z,56.09
2018-06-03T20:57:47.832Z,55.69
2018-06-03T21:00:16.185Z,55.92
2018-06-03T21:02:44.461Z,55.64
2018-06-03T21:05:12.775Z,56.75
2018-06-03T21:07:41.000Z,57.30
2018-06-03T21:10:09.404Z,57.64
2018-06-03T21:12:37.736Z,58.67
2018-06-03T21:15:06.055Z,58.33
2018-06-03T21:17:34.231Z,58.06
2018-06-03T21:20:02.713Z,58.01
2018-06-03T21:22:30.871Z,56.63
2018-06-03T21:24:59.082Z,56.63
2018-06-03T21:27:27.343Z,56.92
2018-06-03T21:29:55.714Z,56.65
2018-06-03T21:32:24.022Z,56.46
2018-06-03T21:34:52.266Z,57.73
2018-06-03T21:37:20.430Z,58.05
2018-06-03T21:39:48.866Z,58.53
2018-06-03T21:42:17.098Z,58.19
2018-06-03T21:44:45.377Z,58.05
2018-06-03T21:47:13.581Z,58.37
2018-06-03T21:49:41.938Z,58.61
2018-06-03T21:52:10.210Z,58.71
2018-06-03T21:54:38.626Z,59.50
2018-06-03T21:57:06.855Z,59.37
2018-06-03T21:59:35.161Z,59.75
2018-06-03T22:02:03.458Z,59.22
2018-06-03T22:04:32.190Z,59.20
2018-06-03T22:07:00.370Z,59.38
2018-06-03T22:09:28.697Z,58.29
2018-06-03T22:11:57.021Z,59.23
2018-06-03T22:14:25.697Z,60.02
2018-06-03T22:16:53.919Z,60.39
2018-06-03T22:19:22.279Z,60.77
2018-06-03T22:21:50.653Z,60.45
2018-06-03T22:24:19.009Z,60.79
2018-06-03T22:26:47.508Z,61.47
2018-06-03T22:29:15.688Z,61.56
2018-06-03T22:31:44.096Z,61.73
2018-06-03T22:34:12.446Z,61.83
2018-06-03T22:36:40.714Z,61.77
2018-06-03T22:39:09.134Z,61.84
2018-06-03T22:41:37.069Z,62.07
2018-06-03T22:44:05.445Z,62.37
2018-06-03T22:46:33.590Z,63.32
2018-06-03T22:49:01.997Z,63.18
2018-06-03T22:51:30.174Z,63.40
2018-06-03T22:53:58.498Z,62.40
2018-06-03T22:56:36.302Z,62.50
2018-06-03T22:59:04.454Z,62.33
2018-06-03T23:01:32.605Z,62.91
2018-06-03T23:04:00.785Z,62.08
2018-06-03T23:06:29.098Z,62.33
2018-06-03T23:08:57.345Z,63.02
2018-06-03T23:11:25.585Z,63.37
2018-06-03T23:13:53.814Z,62.69
2018-06-03T23:16:21.944Z,63.00
2018-06-03T23:18:50.370Z,63.84
2018-06-03T23:21:18.882Z,63.81
2018-06-03T23:23:47.398Z,63.15
2018-06-03T23:26:15.592Z,62.65
2018-06-03T23:28:43.981Z,64.10
2018-06-03T23:31:12.229Z,63.94
2018-06-03T23:33:40.611Z,63.18
2018-06-03T23:36:08.811Z,63.04
2018-06-03T23:38:36.962Z,63.85
2018-06-03T23:41:05.335Z,63.03
2018-06-03T23:43:33.665Z,63.93
2018-06-03T23:46:01.983Z,63.91
2018-06-03T23:48:30.299Z,62.43
2018-06-03T23:50:58.658Z,62.78
2018-06-03T23:53:27.121Z,63.81
2018-06-03T23:55:55.310Z,64.01
2018-06-03T23:58:23.626Z,64.03
